Time;durP1;ratioP1;P1;durP2;ratioP2;P2;SDS_P1;SDS_P2;PMS_P1;PMS_P2;Temp;Humidity;BMP_temperature;BMP_pressure;BME280_temperature;BME280_humidity;BME280_pressure;Samples;Min_cycle;Max_cycle;Signal;HPM_P1;HPM_P2
2022/07/30 00:01:34;;;;;;;10.25;5.10;;;;;;;26.17;49.24;99569.88;4497202;31;33797;-78
2022/07/30 00:04:03;;;;;;;7.72;5.00;;;;;;;25.97;49.98;99573.87;4500289;31;33393;-79
2022/07/30 00:06:31;;;;;;;7.97;4.97;;;;;;;26.13;49.81;99576.19;4495558;31;34428;-78
2022/07/30 00:08:58;;;;;;;6.82;5.05;;;;;;;25.97;50.33;99576.53;4497459;31;34600;-77
2022/07/30 00:11:26;;;;;;;6.43;4.40;;;;;;;26.14;50.02;99585.91;4499881;31;33776;-78
2022/07/30 00:13:54;;;;;;;6.85;4.87;;;;;;;26.39;49.33;99581.78;4498461;31;33102;-77
2022/07/30 00:16:22;;;;;;;7.93;4.47;;;;;;;26.15;49.91;99587.63;4480706;31;33946;-77
2022/07/30 00:18:50;;;;;;;8.23;4.97;;;;;;;26.28;49.42;99589.97;4497389;31;34037;-78
2022/07/30 00:21:18;;;;;;;8.00;5.07;;;;;;;26.06;50.27;99584.28;4488447;31;33809;-77
2022/07/30 00:24:03;;;;;;;11.48;4.97;;;;;;;26.06;50.15;99586.94;4495904;31;34215;-78
2022/07/30 00:26:31;;;;;;;7.78;5.50;;;;;;;26.24;49.53;99582.13;4499232;31;34585;-79
2022/07/30 00:28:58;;;;;;;7.45;5.20;;;;;;;26.17;49.83;99575.19;4491368;31;33358;-76
2022/07/30 00:31:28;;;;;;;7.53;5.10;;;;;;;25.73;51.18;99574.34;4486476;31;32400;-77
2022/07/30 00:33:55;;;;;;;7.60;5.28;;;;;;;26.00;50.45;99576.47;4497424;31;34410;-79
2022/07/30 00:36:23;;;;;;;7.87;4.95;;;;;;;26.02;50.29;99574.66;4490839;31;34716;-78
2022/07/30 00:38:51;;;;;;;7.40;4.95;;;;;;;25.94;50.47;99565.09;4498310;31;33089;-79
2022/07/30 00:41:19;;;;;;;8.88;5.25;;;;;;;25.49;51.51;99572.16;4498120;31;33755;-79
2022/07/30 00:43:46;;;;;;;7.87;5.50;;;;;;;25.85;50.64;99563.50;4500407;31;34050;-79
2022/07/30 00:46:14;;;;;;;7.97;5.30;;;;;;;25.68;51.09;99559.41;4497468;31;33931;-77
2022/07/30 00:48:42;;;;;;;8.40;5.50;;;;;;;25.73;50.95;99563.75;4497322;31;33490;-78
2022/07/30 00:51:09;;;;;;;10.55;5.82;;;;;;;26.03;50.13;99562.25;4500490;31;33813;-76
2022/07/30 00:53:38;;;;;;;6.22;5.03;;;;;;;26.00;50.06;99568.50;4499930;31;33391;-76
2022/07/30 00:56:06;;;;;;;6.25;4.95;;;;;;;25.68;50.92;99564.72;4499760;31;34447;-78
2022/07/30 00:58:34;;;;;;;7.35;5.12;;;;;;;25.76;50.71;99564.56;4500556;31;33507;-77
2022/07/30 01:01:02;;;;;;;8.32;5.25;;;;;;;25.83;50.57;99567.97;4492988;31;32423;-77
2022/07/30 01:03:30;;;;;;;11.23;5.20;;;;;;;25.73;50.76;99561.97;4500993;31;33553;-78
2022/07/30 01:05:57;;;;;;;8.10;5.60;;;;;;;25.52;51.29;99558.00;4499002;31;33883;-77
2022/07/30 01:08:25;;;;;;;6.62;5.20;;;;;;;25.38;51.74;99563.56;4492971;31;32433;-80
2022/07/30 01:10:52;;;;;;;6.57;5.05;;;;;;;25.33;51.99;99562.78;4497106;31;33909;-77
2022/07/30 01:13:20;;;;;;;7.87;5.50;;;;;;;25.58;51.18;99568.47;4488634;31;33426;-80
2022/07/30 01:15:48;;;;;;;7.80;5.22;;;;;;;25.66;51.28;99565.66;4491887;31;33916;-79
2022/07/30 01:18:16;;;;;;;10.00;5.20;;;;;;;25.39;52.06;99569.75;4491820;31;34863;-78
2022/07/30 01:21:07;;;;;;;9.27;5.40;;;;;;;25.29;52.34;99569.91;4477926;31;34758;-78
2022/07/30 01:23:42;;;;;;;6.60;5.00;;;;;;;25.19;52.92;99560.38;4496626;31;33586;-79
2022/07/30 01:26:11;;;;;;;7.07;5.37;;;;;;;25.57;51.86;99560.53;4492222;31;33963;-78
2022/07/30 01:28:41;;;;;;;7.37;5.60;;;;;;;25.48;52.25;99558.97;4493765;31;34544;-78
2022/07/30 01:31:09;;;;;;;7.28;5.32;;;;;;;25.20;53.01;99564.75;4497881;31;33625;-77
2022/07/30 01:33:39;;;;;;;7.30;5.10;;;;;;;25.20;52.95;99558.56;4476536;32;34098;-79
2022/07/30 01:36:11;;;;;;;6.80;5.30;;;;;;;25.20;53.12;99570.03;4495120;31;33815;-80
2022/07/30 01:38:39;;;;;;;7.40;4.78;;;;;;;25.15;53.31;99571.94;4491677;31;34587;-78
2022/07/30 01:41:07;;;;;;;6.65;5.10;;;;;;;25.29;52.95;99580.53;4492280;31;34393;-77
2022/07/30 01:43:35;;;;;;;8.45;5.85;;;;;;;25.63;51.91;99574.56;4499979;31;34136;-78
2022/07/30 01:46:04;;;;;;;11.90;5.20;;;;;;;25.38;52.63;99573.28;4499482;31;33841;-77
2022/07/30 01:48:34;;;;;;;8.38;5.10;;;;;;;25.37;52.70;99571.56;4498589;31;33359;-79
2022/07/30 01:51:04;;;;;;;6.90;5.15;;;;;;;25.57;52.13;99557.88;4492505;31;33896;-77
2022/07/30 01:53:35;;;;;;;8.98;5.70;;;;;;;25.47;52.49;99557.19;4488036;31;33359;-78
2022/07/30 01:56:04;;;;;;;10.23;5.78;;;;;;;25.35;53.02;99557.47;4489032;31;33902;-77
2022/07/30 01:58:39;;;;;;;8.20;5.87;;;;;;;25.43;52.72;99552.88;4495620;31;34005;-76
2022/07/30 02:01:07;;;;;;;7.35;5.30;;;;;;;25.53;52.53;99551.75;4497110;31;32878;-79
2022/07/30 02:03:35;;;;;;;9.05;5.60;;;;;;;25.35;52.94;99544.19;4490910;31;31888;-77
2022/07/30 02:06:07;;;;;;;7.72;5.45;;;;;;;25.17;53.61;99538.31;4499873;31;34288;-78
2022/07/30 02:08:40;;;;;;;10.02;6.00;;;;;;;25.22;53.40;99524.97;4488798;31;34023;-80
2022/07/30 02:11:14;;;;;;;8.55;5.35;;;;;;;25.06;54.10;99537.63;4487063;31;34627;-78
2022/07/30 02:13:49;;;;;;;7.53;5.72;;;;;;;25.31;53.34;99531.00;4502448;31;33399;-77
2022/07/30 02:16:23;;;;;;;8.10;5.55;;;;;;;25.26;53.51;99522.25;4489007;31;33895;-80
2022/07/30 02:18:57;;;;;;;8.80;5.30;;;;;;;25.13;53.97;99518.06;4494629;31;34462;-77
2022/07/30 02:21:26;;;;;;;8.18;5.57;;;;;;;25.33;53.44;99519.50;4475233;31;33695;-79
2022/07/30 02:24:05;;;;;;;8.18;5.53;;;;;;;25.27;53.60;99512.53;4496653;31;33399;-76
2022/07/30 02:26:34;;;;;;;7.53;5.03;;;;;;;25.42;53.18;99511.31;4489788;31;33830;-79
2022/07/30 02:29:05;;;;;;;7.32;5.40;;;;;;;25.30;53.39;99505.41;4488687;31;33866;-78
2022/07/30 02:31:39;;;;;;;8.95;5.50;;;;;;;24.93;54.73;99503.41;4500310;31;34538;-78
2022/07/30 02:34:08;;;;;;;9.52;5.90;;;;;;;25.26;53.42;99489.56;4497179;31;34176;-80
2022/07/30 02:36:36;;;;;;;6.87;5.37;;;;;;;25.09;54.24;99493.41;4490668;31;33608;-77
2022/07/30 02:39:05;;;;;;;7.10;5.47;;;;;;;24.94;54.64;99483.09;4489587;31;33840;-77
2022/07/30 02:41:35;;;;;;;11.73;5.97;;;;;;;24.91;54.97;99486.66;4488783;31;33721;-81
2022/07/30 02:44:03;;;;;;;7.80;6.03;;;;;;;25.07;54.52;99487.25;4493606;31;35106;-78
2022/07/30 02:46:31;;;;;;;8.30;5.55;;;;;;;25.23;53.86;99489.66;4496452;31;32528;-77
2022/07/30 02:49:01;;;;;;;7.00;5.20;;;;;;;25.16;53.82;99494.16;4479088;31;33923;-78
2022/07/30 02:51:29;;;;;;;7.53;5.22;;;;;;;25.00;54.73;99496.22;4490192;31;34696;-79
2022/07/30 02:53:58;;;;;;;7.72;5.47;;;;;;;24.87;55.06;99492.06;4493351;31;34168;-79
2022/07/30 02:56:27;;;;;;;8.07;5.05;;;;;;;24.96;54.90;99496.31;4488653;31;32383;-78
2022/07/30 02:58:56;;;;;;;6.80;5.28;;;;;;;24.60;55.83;99494.28;4489548;31;33668;-79
2022/07/30 03:01:25;;;;;;;8.10;5.53;;;;;;;24.36;56.79;99495.56;4491384;31;34690;-79
2022/07/30 03:03:53;;;;;;;8.68;5.53;;;;;;;24.90;55.06;99502.62;4494417;31;34172;-77
2022/07/30 03:06:24;;;;;;;8.35;5.60;;;;;;;24.51;56.07;99491.81;4490413;31;33663;-79
2022/07/30 03:08:52;;;;;;;8.50;5.45;;;;;;;24.73;55.57;99495.84;4495809;31;33789;-79
2022/07/30 03:11:21;;;;;;;7.87;5.70;;;;;;;24.80;55.33;99490.41;4490395;31;33946;-77
2022/07/30 03:13:49;;;;;;;7.50;5.30;;;;;;;24.91;55.07;99494.59;4486240;31;31887;-77
2022/07/30 03:16:18;;;;;;;8.27;5.30;;;;;;;24.93;55.08;99497.25;4489602;31;33914;-78
2022/07/30 03:18:46;;;;;;;7.55;5.03;;;;;;;25.07;54.73;99491.66;4489978;31;34716;-79
2022/07/30 03:21:14;;;;;;;8.20;5.22;;;;;;;25.05;54.63;99490.81;4490017;31;33976;-79
2022/07/30 03:23:43;;;;;;;8.35;5.10;;;;;;;25.02;54.84;99496.22;4495715;31;32242;-79
2022/07/30 03:26:11;;;;;;;6.55;5.25;;;;;;;25.10;54.51;99489.84;4491053;31;34411;-80
2022/07/30 03:28:39;;;;;;;9.13;5.75;;;;;;;24.91;55.05;99488.44;4490987;31;34830;-78
2022/07/30 03:31:09;;;;;;;8.32;5.47;;;;;;;24.80;55.46;99488.66;4499227;31;33615;-78
2022/07/30 03:33:39;;;;;;;7.65;5.30;;;;;;;24.73;55.66;99484.38;4496967;31;31892;-77
2022/07/30 03:36:08;;;;;;;12.15;5.65;;;;;;;24.69;55.83;99488.84;4490331;31;32722;-79
2022/07/30 03:38:36;;;;;;;7.80;5.20;;;;;;;24.33;56.50;99483.22;4490786;31;34318;-76
2022/07/30 03:41:05;;;;;;;6.90;5.28;;;;;;;24.31;56.61;99482.37;4497046;31;34488;-80
2022/07/30 03:43:34;;;;;;;7.37;5.30;;;;;;;24.46;56.31;99486.56;4495235;31;33467;-79
2022/07/30 03:46:02;;;;;;;9.55;5.80;;;;;;;24.71;55.57;99488.81;4500900;31;33902;-80
2022/07/30 03:48:32;;;;;;;7.80;5.57;;;;;;;24.56;56.07;99487.31;4494287;31;33979;-82
2022/07/30 03:51:06;;;;;;;7.50;5.18;;;;;;;24.57;56.12;99480.22;4495185;31;34117;-80
2022/07/30 03:53:34;;;;;;;6.55;5.12;;;;;;;24.12;57.53;99486.22;4498874;31;33867;-78
2022/07/30 03:56:03;;;;;;;6.45;5.37;;;;;;;24.42;56.49;99490.16;4498613;31;32856;-79
2022/07/30 03:58:36;;;;;;;7.07;5.12;;;;;;;24.36;56.87;99484.97;4488212;31;33713;-80
2022/07/30 04:01:04;;;;;;;7.72;5.20;;;;;;;24.55;56.32;99487.31;4490599;31;33889;-81
2022/07/30 04:03:32;;;;;;;8.02;4.95;;;;;;;24.66;55.94;99485.38;4498452;31;34213;-77
2022/07/30 04:06:01;;;;;;;6.65;4.80;;;;;;;24.39;56.67;99484.03;4488510;31;33804;-79
2022/07/30 04:08:28;;;;;;;7.10;5.05;;;;;;;24.53;56.33;99477.66;4498501;31;34742;-75
2022/07/30 04:10:56;;;;;;;7.85;4.90;;;;;;;24.58;56.42;99484.66;4500535;31;34671;-78
2022/07/30 04:13:26;;;;;;;7.20;4.65;;;;;;;24.85;55.49;99489.44;4492341;31;34330;-78
2022/07/30 04:16:08;;;;;;;7.30;4.85;;;;;;;25.00;55.00;99487.41;4499647;31;33897;-79
2022/07/30 04:18:57;;;;;;;7.45;4.93;;;;;;;25.13;54.52;99496.88;4490055;31;34644;-78
2022/07/30 04:21:26;;;;;;;6.45;4.75;;;;;;;24.79;55.38;99491.34;4499922;31;34372;-79
2022/07/30 04:23:54;;;;;;;6.70;4.60;;;;;;;24.65;55.96;99499.53;4487882;31;33463;-77
2022/07/30 04:26:34;;;;;;;6.68;4.03;;;;;;;24.50;56.30;99493.56;4497883;31;34778;-79
2022/07/30 04:29:04;;;;;;;7.18;4.57;;;;;;;25.10;54.60;99499.56;4499997;31;34054;-77
2022/07/30 04:31:35;;;;;;;7.07;4.78;;;;;;;25.01;54.89;99497.09;4500573;31;33084;-82
2022/07/30 04:34:12;;;;;;;8.25;5.40;;;;;;;24.97;55.11;99508.66;4498185;31;31901;-78
2022/07/30 04:36:40;;;;;;;7.18;4.15;;;;;;;24.77;55.36;99507.25;4495558;31;34333;-79
2022/07/30 04:39:08;;;;;;;7.12;4.25;;;;;;;24.71;55.92;99523.25;4491593;31;34652;-79
2022/07/30 04:41:38;;;;;;;6.10;4.47;;;;;;;25.16;54.40;99527.75;4497762;31;32768;-78
2022/07/30 04:44:19;;;;;;;6.85;4.65;;;;;;;25.02;55.17;99517.41;4498100;31;34401;-76
2022/07/30 04:46:47;;;;;;;6.97;4.12;;;;;;;25.11;54.89;99527.81;4500425;31;34597;-77
2022/07/30 04:49:17;;;;;;;7.72;4.87;;;;;;;24.56;56.43;99528.81;4495531;31;34127;-78
2022/07/30 04:51:45;;;;;;;6.25;4.82;;;;;;;24.64;56.36;99526.91;4499075;31;34611;-77
2022/07/30 04:54:13;;;;;;;6.07;4.10;;;;;;;24.50;56.77;99533.25;4494356;31;33265;-76
2022/07/30 04:56:45;;;;;;;8.02;4.95;;;;;;;24.68;56.50;99533.88;4490604;31;34545;-78
2022/07/30 04:59:28;;;;;;;7.03;4.78;;;;;;;24.57;56.66;99525.25;4497816;31;33961;-77
2022/07/30 05:01:58;;;;;;;7.50;4.65;;;;;;;24.81;56.13;99532.78;4485501;31;34649;-77
2022/07/30 05:04:27;;;;;;;8.10;4.85;;;;;;;25.00;55.48;99537.75;4478275;31;33134;-78
2022/07/30 05:06:55;;;;;;;7.22;4.70;;;;;;;25.22;54.58;99540.88;4479975;31;33549;-77
2022/07/30 05:09:23;;;;;;;8.52;4.65;;;;;;;25.33;54.34;99541.56;4479443;31;33692;-79
2022/07/30 05:11:52;;;;;;;7.45;4.22;;;;;;;24.85;55.57;99542.41;4467082;31;32313;-78
2022/07/30 05:14:21;;;;;;;6.03;4.82;;;;;;;25.34;54.23;99551.25;4485317;31;34027;-79
2022/07/30 05:16:50;;;;;;;7.78;4.45;;;;;;;25.57;53.71;99545.50;4477836;31;32694;-78
2022/07/30 05:19:18;;;;;;;6.62;4.55;;;;;;;25.58;53.56;99547.25;4491522;31;33682;-79
2022/07/30 05:21:46;;;;;;;7.37;4.37;;;;;;;25.90;52.54;99546.56;4484091;31;34102;-80
2022/07/30 05:24:15;;;;;;;6.85;4.35;;;;;;;25.90;52.56;99550.97;4496528;31;33222;-83
2022/07/30 05:26:45;;;;;;;6.65;4.43;;;;;;;25.76;53.29;99542.47;4494174;31;33563;-83
2022/07/30 05:29:16;;;;;;;6.47;4.55;;;;;;;25.84;53.30;99543.16;4500568;31;32773;-81
2022/07/30 05:31:47;;;;;;;7.57;4.55;;;;;;;25.96;52.88;99545.59;4493200;31;33980;-83
2022/07/30 05:34:15;;;;;;;5.40;4.10;;;;;;;25.98;52.67;99541.13;4495973;31;33722;-79
2022/07/30 05:36:43;;;;;;;7.40;4.65;;;;;;;25.84;52.96;99548.47;4495452;31;33641;-77
2022/07/30 05:39:12;;;;;;;9.75;4.80;;;;;;;25.90;52.85;99540.38;4497849;31;33664;-77
2022/07/30 05:41:40;;;;;;;7.50;4.57;;;;;;;25.51;53.97;99540.31;4495628;31;33890;-77
2022/07/30 05:44:08;;;;;;;6.70;4.62;;;;;;;25.22;54.97;99541.75;4492850;31;33639;-76
2022/07/30 05:46:36;;;;;;;7.10;3.95;;;;;;;25.59;54.06;99538.38;4500651;31;34128;-79
2022/07/30 05:49:05;;;;;;;6.65;4.47;;;;;;;25.75;53.52;99541.59;4501022;31;33975;-77
2022/07/30 05:51:33;;;;;;;8.02;4.35;;;;;;;25.62;53.98;99548.94;4493546;31;33965;-77
2022/07/30 05:54:00;;;;;;;5.30;4.03;;;;;;;25.81;53.21;99556.50;4493802;31;34062;-76
2022/07/30 05:56:29;;;;;;;7.43;4.50;;;;;;;25.88;53.25;99552.78;4496741;31;34493;-77
2022/07/30 05:58:58;;;;;;;6.35;4.43;;;;;;;25.67;53.64;99552.37;4494999;31;33769;-78
2022/07/30 06:01:26;;;;;;;5.60;4.20;;;;;;;25.88;53.30;99548.38;4491838;31;33624;-77
2022/07/30 06:03:55;;;;;;;9.18;4.70;;;;;;;25.74;53.53;99544.28;4493091;31;32348;-77
2022/07/30 06:06:33;;;;;;;7.35;4.85;;;;;;;25.66;53.77;99561.22;4491795;31;33846;-78
2022/07/30 06:09:01;;;;;;;6.05;4.68;;;;;;;26.12;52.43;99562.03;4494331;31;34422;-78
2022/07/30 06:11:29;;;;;;;6.53;4.40;;;;;;;25.58;53.93;99567.59;4497898;31;33899;-78
2022/07/30 06:13:56;;;;;;;6.93;4.57;;;;;;;25.33;54.52;99569.88;4494086;31;33367;-78
2022/07/30 06:16:24;;;;;;;10.57;4.65;;;;;;;25.60;54.01;99569.31;4495913;31;33806;-78
2022/07/30 06:18:52;;;;;;;6.03;4.35;;;;;;;25.73;53.70;99569.03;4489829;31;33468;-76
2022/07/30 06:21:20;;;;;;;6.05;4.70;;;;;;;26.17;52.43;99572.53;4494252;31;34038;-77
2022/07/30 06:23:49;;;;;;;8.52;4.57;;;;;;;26.38;52.08;99574.69;4499663;31;34195;-78
2022/07/30 06:26:16;;;;;;;9.13;4.65;;;;;;;26.30;52.33;99571.34;4501001;31;33731;-76
2022/07/30 06:28:44;;;;;;;6.47;4.75;;;;;;;26.46;51.79;99562.12;4500961;31;33720;-77
2022/07/30 06:31:13;;;;;;;6.62;4.93;;;;;;;26.15;52.63;99571.72;4495312;31;33871;-78
2022/07/30 06:33:42;;;;;;;6.68;4.75;;;;;;;26.02;52.92;99577.31;4492146;31;34058;-76
2022/07/30 06:36:09;;;;;;;8.15;4.82;;;;;;;26.58;51.50;99570.69;4498391;31;33701;-79
2022/07/30 06:38:42;;;;;;;8.85;5.10;;;;;;;26.11;52.55;99580.66;4492260;31;32515;-77
2022/07/30 06:41:11;;;;;;;6.72;4.50;;;;;;;25.87;53.28;99577.59;4494615;31;34483;-77
2022/07/30 06:43:40;;;;;;;7.18;4.40;;;;;;;26.70;51.70;99583.72;4496900;31;33318;-77
2022/07/30 06:46:09;;;;;;;7.65;4.90;;;;;;;27.05;50.62;99576.63;4499345;31;33671;-81
2022/07/30 06:48:38;;;;;;;7.50;4.50;;;;;;;27.01;50.70;99580.28;4495010;31;33985;-78
2022/07/30 06:51:06;;;;;;;8.13;5.32;;;;;;;27.44;49.61;99576.50;4499996;31;33918;-81
2022/07/30 06:53:34;;;;;;;9.50;4.90;;;;;;;27.24;50.00;99582.34;4496042;31;33439;-82
2022/07/30 06:56:14;;;;;;;9.18;5.12;;;;;;;26.86;50.81;99569.13;4494737;31;32609;-80
2022/07/30 06:58:42;;;;;;;7.28;4.65;;;;;;;27.03;50.51;99574.00;4494980;31;33954;-81
2022/07/30 07:01:14;;;;;;;6.90;4.70;;;;;;;27.04;50.63;99565.13;4498463;31;33144;-80
2022/07/30 07:03:41;;;;;;;6.12;4.62;;;;;;;27.69;48.75;99563.34;4496639;31;33167;-81
2022/07/30 07:06:10;;;;;;;6.85;4.95;;;;;;;27.20;50.23;99564.72;4495628;31;34711;-81
2022/07/30 07:08:37;;;;;;;7.93;4.60;;;;;;;27.16;50.34;99563.94;4500835;31;34093;-85
2022/07/30 07:11:05;;;;;;;9.77;4.90;;;;;;;27.61;49.39;99566.25;4500235;31;34768;-86
2022/07/30 07:13:33;;;;;;;6.50;4.50;;;;;;;27.57;49.30;99555.75;4501694;31;33346;-84
2022/07/30 07:16:01;;;;;;;6.60;4.85;;;;;;;27.49;49.52;99560.38;4492903;31;33756;-86
2022/07/30 07:18:29;;;;;;;7.18;4.78;;;;;;;28.08;48.26;99555.12;4492492;31;33642;-85
2022/07/30 07:20:57;;;;;;;7.18;4.93;;;;;;;28.19;48.00;99563.66;4491517;31;34466;-85
2022/07/30 07:23:25;;;;;;;6.85;4.50;;;;;;;28.62;46.79;99556.97;4494941;31;33404;-85
2022/07/30 07:26:10;;;;;;;6.25;4.22;;;;;;;28.69;46.64;99546.97;4494148;31;33675;-87
2022/07/30 07:28:39;;;;;;;6.50;4.95;;;;;;;28.92;45.72;99548.00;4491917;31;33513;-85
2022/07/30 07:31:07;;;;;;;7.30;4.85;;;;;;;29.44;44.92;99546.16;4478341;31;33524;-86
2022/07/30 07:33:36;;;;;;;7.47;4.62;;;;;;;29.79;43.84;99546.66;4491650;31;33485;-87
2022/07/30 07:36:04;;;;;;;6.53;4.78;;;;;;;30.70;41.34;99551.06;4490339;31;34052;-88
2022/07/30 07:38:31;;;;;;;8.13;4.53;;;;;;;30.68;41.28;99556.47;4487695;31;34640;-84
2022/07/30 07:40:59;;;;;;;8.30;5.22;;;;;;;31.02;40.34;99568.44;4497639;31;34467;-83
2022/07/30 07:43:27;;;;;;;8.23;4.53;;;;;;;31.03;40.40;99567.50;4495415;31;33327;-84
2022/07/30 07:45:56;;;;;;;5.85;4.53;;;;;;;30.58;41.54;99566.69;4493969;31;33674;-79
2022/07/30 07:48:24;;;;;;;9.30;6.30;;;;;;;29.98;42.90;99579.75;4494082;31;33517;-79
2022/07/30 07:50:53;;;;;;;15.40;10.20;;;;;;;29.89;43.39;99577.41;4499649;31;33793;-79
2022/07/30 07:53:26;;;;;;;8.95;6.10;;;;;;;29.71;43.97;99575.41;4495319;31;33896;-79
2022/07/30 07:55:55;;;;;;;13.38;8.23;;;;;;;29.69;43.94;99579.91;4494065;31;33722;-79
2022/07/30 07:58:24;;;;;;;13.10;8.48;;;;;;;29.95;43.41;99593.19;4498848;31;34729;-81
2022/07/30 08:00:53;;;;;;;9.75;7.05;;;;;;;29.75;43.66;99593.09;4495804;31;34945;-83
2022/07/30 08:03:22;;;;;;;10.32;6.03;;;;;;;29.65;44.05;99591.66;4494526;31;34199;-78
2022/07/30 08:05:50;;;;;;;8.30;5.00;;;;;;;29.38;44.54;99583.72;4499217;31;34706;-73
2022/07/30 08:08:36;;;;;;;8.10;5.22;;;;;;;29.04;44.94;99600.03;4501490;31;33095;-78
2022/07/30 08:11:07;;;;;;;11.57;6.30;;;;;;;29.23;44.76;99592.28;4500507;31;33127;-79
2022/07/30 08:13:37;;;;;;;8.40;5.12;;;;;;;29.36;44.58;99590.91;4496220;31;33576;-79
2022/07/30 08:16:33;;;;;;;8.27;5.00;;;;;;;29.19;45.18;99589.72;4495879;31;33247;-78
2022/07/30 08:19:03;;;;;;;7.53;5.05;;;;;;;29.51;45.04;99608.16;4497065;31;32348;-78
2022/07/30 08:21:31;;;;;;;10.70;4.68;;;;;;;29.60;44.89;99610.50;4497025;31;33923;-79
2022/07/30 08:24:01;;;;;;;6.20;4.75;;;;;;;29.45;45.19;99611.94;4493272;31;33687;-80
2022/07/30 08:26:28;;;;;;;9.02;4.65;;;;;;;29.64;44.64;99606.78;4495236;31;33956;-79
2022/07/30 08:28:57;;;;;;;10.13;5.95;;;;;;;29.53;44.99;99609.84;4497084;31;33782;-79
2022/07/30 08:31:25;;;;;;;9.65;5.93;;;;;;;29.52;47.97;99610.78;4492752;31;34446;-78
2022/07/30 08:33:53;;;;;;;7.72;5.45;;;;;;;28.52;50.84;99615.94;4500666;31;33364;-78
2022/07/30 08:36:22;;;;;;;12.23;6.25;;;;;;;28.20;51.96;99625.75;4495837;31;33906;-77
2022/07/30 08:38:52;;;;;;;8.45;6.10;;;;;;;28.12;52.36;99619.81;4499129;31;34105;-77
2022/07/30 08:41:21;;;;;;;8.07;6.20;;;;;;;27.97;52.73;99621.13;4494506;31;33681;-77
2022/07/30 08:43:49;;;;;;;12.37;7.47;;;;;;;26.93;55.73;99625.66;4485786;31;33467;-76
2022/07/30 08:46:21;;;;;;;11.73;6.50;;;;;;;26.32;58.44;99622.66;4489545;31;33975;-78
2022/07/30 08:48:51;;;;;;;14.68;6.90;;;;;;;26.00;60.69;99628.66;4491175;31;33757;-78
2022/07/30 08:51:18;;;;;;;11.43;7.20;;;;;;;26.51;58.81;99627.56;4487879;31;33445;-77
2022/07/30 08:53:48;;;;;;;10.85;6.57;;;;;;;26.72;59.09;99621.75;4490150;31;34465;-75
2022/07/30 08:56:16;;;;;;;12.07;6.90;;;;;;;26.65;58.85;99622.81;4499985;31;33912;-76
2022/07/30 08:58:45;;;;;;;10.95;6.35;;;;;;;26.48;59.56;99628.47;4493340;31;34674;-78
2022/07/30 09:01:15;;;;;;;12.68;7.68;;;;;;;26.12;60.55;99635.50;4490885;31;33480;-79
2022/07/30 09:03:43;;;;;;;9.30;6.95;;;;;;;25.72;62.55;99639.81;4484003;31;33409;-79
2022/07/30 09:06:11;;;;;;;10.32;7.85;;;;;;;26.22;59.83;99645.00;4493871;31;32241;-78
2022/07/30 09:08:41;;;;;;;16.08;8.27;;;;;;;23.98;66.09;99647.81;4488388;31;33014;-80
2022/07/30 09:11:08;;;;;;;12.10;8.65;;;;;;;24.44;65.17;99647.22;4493502;31;33813;-74
2022/07/30 09:13:43;;;;;;;11.30;8.27;;;;;;;23.33;69.01;99648.53;4493413;31;33107;-74
2022/07/30 09:16:24;;;;;;;11.40;8.13;;;;;;;24.06;66.68;99639.78;4489366;31;33724;-75
2022/07/30 09:18:53;;;;;;;12.10;8.60;;;;;;;23.77;67.02;99635.69;4495557;31;34415;-79
2022/07/30 09:21:22;;;;;;;10.90;9.13;;;;;;;24.46;64.88;99621.59;4494591;31;33879;-76
2022/07/30 09:24:10;;;;;;;12.68;8.80;;;;;;;23.19;69.72;99634.53;4493893;31;34134;-76
2022/07/30 09:27:01;;;;;;;11.27;8.82;;;;;;;23.99;67.47;99633.72;4496165;31;32522;-77
2022/07/30 09:29:38;;;;;;;12.00;9.60;;;;;;;23.98;67.27;99637.25;4483708;31;32699;-77
2022/07/30 09:32:20;;;;;;;13.60;9.77;;;;;;;22.61;71.43;99629.72;4487419;31;34403;-76
2022/07/30 09:35:11;;;;;;;14.57;9.43;;;;;;;22.37;72.47;99643.06;4495502;31;34502;-77
2022/07/30 09:37:41;;;;;;;10.60;9.13;;;;;;;22.79;71.29;99648.03;4500295;31;33174;-77
2022/07/30 09:40:15;;;;;;;14.98;11.30;;;;;;;23.14;70.19;99654.84;4500022;31;34048;-77
2022/07/30 09:42:45;;;;;;;18.55;11.48;;;;;;;22.28;75.89;99684.44;4494739;31;33165;-79
2022/07/30 09:45:14;;;;;;;25.80;12.45;;;;;;;22.37;77.07;99706.41;4489372;31;33549;-78
2022/07/30 09:47:43;;;;;;;24.08;13.60;;;;;;;22.04;80.72;99717.94;4497324;31;33981;-79
2022/07/30 09:50:13;;;;;;;23.60;11.80;;;;;;;23.05;76.96;99689.28;4495924;31;34668;-81
2022/07/30 09:53:07;;;;;;;21.92;12.15;;;;;;;23.85;73.50;99649.72;4496928;31;33800;-83
2022/07/30 09:55:36;;;;;;;17.17;11.55;;;;;;;22.91;76.18;99618.91;4496093;31;34174;-78
2022/07/30 09:58:09;;;;;;;15.75;11.57;;;;;;;22.82;76.62;99616.34;4499509;31;34962;-82
2022/07/30 10:00:46;;;;;;;14.98;11.40;;;;;;;23.44;74.51;99627.25;4482858;31;31973;-80
2022/07/30 10:03:24;;;;;;;17.67;11.40;;;;;;;23.51;73.57;99626.31;4498009;31;33483;-83
2022/07/30 10:06:32;;;;;;;15.38;11.55;;;;;;;23.19;75.09;99623.97;4487758;31;33368;-80
2022/07/30 10:09:00;;;;;;;13.80;11.60;;;;;;;22.92;75.68;99620.66;4489323;31;34477;-80
2022/07/30 10:11:40;;;;;;;14.90;11.98;;;;;;;23.09;74.71;99622.31;4486700;31;33789;-83
2022/07/30 10:14:08;;;;;;;16.35;11.48;;;;;;;23.17;74.58;99616.06;4489998;31;33672;-78
2022/07/30 10:16:36;;;;;;;20.35;12.68;;;;;;;22.73;77.53;99640.19;4486854;31;33550;-81
2022/07/30 10:19:05;;;;;;;21.02;14.00;;;;;;;22.16;82.67;99641.38;4485802;31;33935;-76
2022/07/30 10:21:48;;;;;;;23.42;14.73;;;;;;;21.89;84.67;99642.37;4495880;31;33708;-80
2022/07/30 10:24:21;;;;;;;20.37;13.45;;;;;;;22.06;84.46;99647.59;4489507;31;32990;-79
2022/07/30 10:26:57;;;;;;;22.83;15.82;;;;;;;22.20;84.17;99644.88;4491386;31;32231;-77
2022/07/30 10:29:26;;;;;;;18.67;14.13;;;;;;;22.06;85.83;99658.13;4492976;31;33966;-80
2022/07/30 10:32:01;;;;;;;22.02;15.32;;;;;;;21.82;88.37;99653.81;4497834;31;33602;-79
2022/07/30 10:34:29;;;;;;;18.67;13.77;;;;;;;21.97;87.18;99648.50;4493574;31;33941;-79
2022/07/30 10:37:03;;;;;;;23.77;14.80;;;;;;;21.73;89.10;99660.00;4495213;31;33293;-81
2022/07/30 10:39:45;;;;;;;21.92;15.40;;;;;;;22.34;85.16;99668.59;4485712;31;33638;-81
2022/07/30 10:42:29;;;;;;;17.48;13.73;;;;;;;22.16;86.08;99665.13;4490780;31;32379;-82
2022/07/30 10:45:18;;;;;;;16.95;13.57;;;;;;;23.03;81.83;99660.22;4493962;31;33812;-79
2022/07/30 10:47:46;;;;;;;20.02;14.80;;;;;;;23.19;79.11;99655.69;4487353;31;33188;-79
2022/07/30 10:50:18;;;;;;;23.20;16.15;;;;;;;22.31;85.54;99663.31;4487258;31;33458;-80
2022/07/30 10:52:57;;;;;;;21.52;14.35;;;;;;;22.14;87.65;99656.34;4489507;31;34765;-81
2022/07/30 10:55:32;;;;;;;21.40;14.48;;;;;;;22.90;84.44;99651.47;4490089;31;32534;-78
2022/07/30 10:58:11;;;;;;;18.77;15.00;;;;;;;24.00;78.94;99653.09;4489724;31;31873;-80
2022/07/30 11:00:50;;;;;;;20.50;15.45;;;;;;;23.14;82.73;99642.53;4494165;31;34493;-80
2022/07/30 11:03:22;;;;;;;20.33;15.32;;;;;;;22.78;85.17;99643.66;4495726;31;34138;-80
2022/07/30 11:05:51;;;;;;;21.45;16.65;;;;;;;22.48;87.08;99640.34;4487366;31;33923;-78
2022/07/30 11:08:32;;;;;;;18.62;15.20;;;;;;;23.66;80.82;99635.84;4492155;31;33470;-78
2022/07/30 11:11:04;;;;;;;18.73;15.05;;;;;;;23.25;81.53;99618.63;4500262;31;33808;-78
2022/07/30 11:13:54;;;;;;;18.35;14.82;;;;;;;23.69;80.36;99611.97;4499762;31;34445;-79
2022/07/30 11:16:41;;;;;;;18.37;14.48;;;;;;;22.60;85.91;99609.47;4495850;31;34538;-77
2022/07/30 11:19:19;;;;;;;15.52;12.43;;;;;;;22.87;85.31;99597.81;4482621;31;34225;-81
2022/07/30 11:22:30;;;;;;;13.00;10.25;;;;;;;23.05;85.13;99588.91;4492896;31;33726;-79
2022/07/30 11:25:00;;;;;;;12.18;8.55;;;;;;;22.92;82.31;99581.03;4499136;31;34650;-82
2022/07/30 11:27:47;;;;;;;13.10;9.88;;;;;;;22.96;81.29;99574.81;4497161;31;33877;-81
2022/07/30 11:30:15;;;;;;;12.80;9.13;;;;;;;23.34;83.68;99570.97;4495378;31;34395;-82
2022/07/30 11:32:45;;;;;;;13.55;9.18;;;;;;;23.50;80.86;99581.37;4491895;31;34748;-79
2022/07/30 11:35:22;;;;;;;12.07;9.60;;;;;;;23.66;80.69;99588.25;4499584;31;33998;-77
2022/07/30 11:38:03;;;;;;;11.70;8.10;;;;;;;23.27;82.64;99579.84;4485375;31;34803;-79
2022/07/30 11:40:46;;;;;;;11.88;8.77;;;;;;;23.50;80.77;99576.09;4486522;32;33932;-82
2022/07/30 11:43:19;;;;;;;12.65;9.65;;;;;;;24.17;76.73;99579.66;4499598;31;32895;-82
2022/07/30 11:46:14;;;;;;;12.82;9.95;;;;;;;23.75;81.47;99577.53;4493975;31;33894;-78
2022/07/30 11:48:55;;;;;;;12.93;8.98;;;;;;;23.23;86.65;99578.12;4502287;31;33921;-79